createdAt,value
2022-09-13T00:02:04.238Z,7.97
2022-09-13T00:05:08.170Z,7.13
2022-09-13T00:08:12.375Z,7.23
2022-09-13T00:11:17.880Z,6.87
2022-09-13T00:14:20.655Z,7.07
2022-09-13T00:17:23.552Z,6.97
2022-09-13T00:20:26.606Z,6.93
2022-09-13T00:23:31.381Z,7.10
2022-09-13T00:26:34.088Z,6.70
2022-09-13T00:29:36.780Z,7.10
2022-09-13T00:32:39.954Z,6.40
2022-09-13T00:35:42.648Z,6.43
2022-09-13T00:38:47.105Z,7.03
2022-09-13T00:41:50.115Z,7.37
2022-09-13T00:44:58.839Z,7.33
2022-09-13T00:48:06.712Z,7.03
2022-09-13T00:51:11.286Z,7.60
2022-09-13T00:54:18.309Z,7.27
2022-09-13T00:57:23.117Z,6.90
2022-09-13T01:00:25.953Z,8.13
2022-09-13T01:03:32.224Z,7.70
2022-09-13T01:06:37.333Z,7.80
2022-09-13T01:09:45.896Z,8.50
2022-09-13T01:12:55.199Z,8.27
2022-09-13T01:15:57.894Z,7.83
2022-09-13T01:19:01.118Z,7.30
2022-09-13T01:22:25.098Z,7.07
2022-09-13T01:25:56.737Z,7.30
2022-09-13T01:29:21.137Z,7.40
2022-09-13T01:32:35.363Z,7.00
2022-09-13T01:35:49.121Z,7.70
2022-09-13T01:38:59.658Z,7.50
2022-09-13T01:42:16.871Z,8.37
2022-09-13T01:45:30.412Z,7.40
2022-09-13T01:48:45.156Z,7.43
2022-09-13T01:51:56.253Z,7.87
2022-09-13T01:55:09.319Z,7.33
2022-09-13T01:58:22.540Z,7.03
2022-09-13T02:01:31.732Z,7.73
2022-09-13T02:04:40.172Z,8.90
2022-09-13T02:07:44.769Z,8.90
2022-09-13T02:10:50.536Z,8.40
2022-09-13T02:13:59.653Z,8.70
2022-09-13T02:17:07.230Z,8.17
2022-09-13T02:20:17.783Z,8.40
2022-09-13T02:23:27.569Z,7.73
2022-09-13T02:26:32.709Z,8.07
2022-09-13T02:29:38.652Z,7.40
2022-09-13T02:32:45.261Z,9.17
2022-09-13T02:35:55.313Z,9.60
2022-09-13T02:39:01.176Z,9.17
2022-09-13T02:42:12.465Z,9.97
2022-09-13T02:45:16.428Z,8.87
2022-09-13T02:48:28.088Z,9.20
2022-09-13T02:51:39.709Z,10.60
2022-09-13T02:54:46.901Z,9.97
2022-09-13T02:58:01.789Z,9.43
2022-09-13T03:01:04.827Z,7.70
2022-09-13T03:04:08.685Z,8.77
2022-09-13T03:07:14.829Z,9.27
2022-09-13T03:10:18.241Z,9.17
2022-09-13T03:13:41.087Z,8.77
2022-09-13T03:16:56.051Z,8.13
2022-09-13T03:20:12.940Z,7.90
2022-09-13T03:23:35.920Z,8.53
2022-09-13T03:26:47.442Z,7.60
2022-09-13T03:29:56.960Z,7.83
2022-09-13T03:33:05.890Z,8.47
2022-09-13T03:36:15.673Z,7.90
2022-09-13T03:39:26.434Z,7.93
2022-09-13T03:42:34.896Z,8.10
2022-09-13T03:45:42.309Z,7.77
2022-09-13T03:48:45.936Z,8.23
2022-09-13T03:51:50.861Z,8.10
2022-09-13T03:54:55.108Z,7.23
2022-09-13T03:57:57.809Z,7.60
2022-09-13T04:01:00.546Z,7.87
2022-09-13T04:04:03.980Z,7.20
2022-09-13T04:07:07.071Z,7.30
2022-09-13T04:10:13.930Z,7.50
2022-09-13T04:13:17.614Z,8.10
2022-09-13T04:16:20.524Z,7.23
2022-09-13T04:19:24.234Z,6.80
2022-09-13T04:22:26.932Z,6.93
2022-09-13T04:25:30.980Z,6.87
2022-09-13T04:28:34.636Z,6.83
2022-09-13T04:31:37.397Z,7.27
2022-09-13T04:34:42.818Z,6.50
2022-09-13T04:37:45.793Z,6.80
2022-09-13T04:40:55.279Z,7.03
2022-09-13T04:43:58.014Z,6.40
2022-09-13T04:47:00.918Z,6.20
2022-09-13T04:50:03.991Z,6.57
2022-09-13T04:53:06.928Z,7.00
2022-09-13T04:56:11.347Z,6.70
2022-09-13T04:59:14.789Z,7.10
2022-09-13T05:02:17.609Z,6.70
2022-09-13T05:05:20.322Z,7.20
2022-09-13T05:08:23.662Z,6.50
2022-09-13T05:11:29.687Z,6.70
2022-09-13T05:14:32.439Z,7.17
2022-09-13T05:17:35.729Z,7.50
2022-09-13T05:20:38.418Z,9.13
2022-09-13T05:23:43.638Z,7.67
2022-09-13T05:26:48.133Z,8.70
2022-09-13T05:29:52.604Z,9.63
2022-09-13T05:32:57.253Z,7.27
2022-09-13T05:36:00.472Z,6.10
2022-09-13T05:39:29.567Z,6.50
2022-09-13T05:42:31.391Z,6.20
2022-09-13T05:45:34.568Z,6.63
2022-09-13T05:48:37.952Z,6.40
2022-09-13T05:51:41.417Z,7.57
2022-09-13T05:54:44.459Z,9.17
2022-09-13T05:57:48.916Z,10.63
2022-09-13T06:00:54.359Z,10.87
2022-09-13T06:03:59.009Z,10.43
2022-09-13T06:07:01.645Z,10.77
2022-09-13T06:10:05.604Z,10.03
2022-09-13T06:13:09.668Z,11.07
2022-09-13T06:16:14.790Z,10.47
2022-09-13T06:19:17.634Z,11.27
2022-09-13T06:22:20.754Z,10.60
2022-09-13T06:25:23.450Z,10.30
2022-09-13T06:28:28.037Z,11.00
2022-09-13T06:31:34.810Z,10.47
2022-09-13T06:34:37.529Z,9.83
2022-09-13T06:37:40.850Z,9.00
2022-09-13T06:40:43.595Z,9.10
2022-09-13T06:43:49.125Z,8.73
2022-09-13T06:46:51.813Z,9.23
2022-09-13T06:49:54.913Z,9.47
2022-09-13T06:52:57.840Z,9.50
2022-09-13T06:56:07.396Z,9.23
2022-09-13T06:59:12.735Z,8.90
2022-09-13T07:02:16.668Z,9.20
2022-09-13T07:05:21.754Z,6.83
2022-09-13T07:08:24.408Z,10.10
2022-09-13T07:11:31.863Z,6.67
2022-09-13T07:14:35.912Z,9.20
2022-09-13T07:17:38.546Z,9.47
2022-09-13T07:20:41.661Z,8.97
2022-09-13T07:23:44.519Z,8.50
2022-09-13T07:26:47.906Z,9.53
2022-09-13T07:29:51.943Z,9.23
2022-09-13T07:32:54.859Z,9.57
2022-09-13T07:35:59.658Z,7.80
2022-09-13T07:39:02.879Z,9.27
2022-09-13T07:42:05.892Z,7.87
2022-09-13T07:45:12.722Z,8.80
2022-09-13T07:48:15.373Z,8.93
2022-09-13T07:51:20.186Z,7.60
2022-09-13T07:54:22.838Z,8.60
2022-09-13T07:57:25.630Z,8.27
2022-09-13T08:00:29.963Z,8.70
2022-09-13T08:03:32.871Z,8.87
2022-09-13T08:06:37.094Z,9.23
2022-09-13T08:09:39.863Z,8.67
2022-09-13T08:12:42.499Z,8.33
2022-09-13T08:15:46.734Z,7.33
2022-09-13T08:18:51.966Z,8.37
2022-09-13T08:21:54.838Z,7.73
2022-09-13T08:24:57.460Z,8.93
2022-09-13T08:28:00.284Z,9.53
2022-09-13T08:31:09.772Z,7.27
2022-09-13T08:34:14.769Z,9.70
2022-09-13T08:37:17.487Z,10.17
2022-09-13T08:40:20.898Z,9.60
2022-09-13T08:43:36.206Z,9.17
2022-09-13T08:46:42.858Z,9.43
2022-09-13T08:49:49.012Z,8.80
2022-09-13T08:53:09.683Z,10.60
2022-09-13T08:56:21.821Z,9.73
2022-09-13T08:59:41.249Z,10.63
2022-09-13T09:03:04.887Z,9.83
2022-09-13T09:06:13.113Z,8.83
2022-09-13T09:09:19.410Z,8.93
2022-09-13T09:12:30.677Z,8.43
2022-09-13T09:15:37.778Z,9.93
2022-09-13T09:18:46.213Z,10.13
2022-09-13T09:21:51.549Z,10.23
2022-09-13T09:24:57.402Z,9.93
2022-09-13T09:28:00.852Z,8.57
2022-09-13T09:31:10.614Z,8.73
2022-09-13T09:34:23.585Z,8.37
2022-09-13T09:37:29.448Z,9.07
2022-09-13T09:40:34.820Z,9.67
2022-09-13T09:43:42.653Z,8.47
2022-09-13T09:46:49.056Z,8.63
2022-09-13T09:50:10.574Z,9.53
2022-09-13T09:53:15.995Z,10.30
2022-09-13T09:56:25.395Z,10.07
2022-09-13T09:59:31.361Z,9.87
2022-09-13T10:02:36.296Z,9.57
2022-09-13T10:05:40.538Z,9.77
2022-09-13T10:08:48.503Z,9.83
2022-09-13T10:11:53.421Z,9.60
2022-09-13T10:15:06.060Z,10.40
2022-09-13T10:18:42.436Z,9.97
2022-09-13T10:21:46.880Z,9.77
2022-09-13T10:24:50.473Z,8.63
2022-09-13T10:27:55.578Z,10.17
2022-09-13T10:31:01.165Z,9.60
2022-09-13T10:34:06.969Z,9.97
2022-09-13T10:37:18.060Z,9.57
2022-09-13T10:40:26.988Z,9.53
2022-09-13T10:43:31.981Z,9.77
2022-09-13T10:46:37.316Z,8.43
2022-09-13T10:49:45.235Z,8.70
2022-09-13T10:52:50.817Z,8.00
2022-09-13T10:55:55.038Z,8.13
2022-09-13T10:59:15.453Z,7.80
2022-09-13T11:02:54.186Z,7.30
2022-09-13T11:06:06.546Z,7.47
2022-09-13T11:09:17.014Z,7.70
2022-09-13T11:12:26.491Z,8.57
2022-09-13T11:15:42.593Z,8.77
2022-09-13T11:18:57.630Z,8.73
2022-09-13T11:22:20.598Z,8.53
2022-09-13T11:25:34.423Z,8.37
2022-09-13T11:28:48.454Z,8.73
2022-09-13T11:31:59.979Z,7.73
2022-09-13T11:35:21.369Z,8.37
2022-09-13T11:38:45.841Z,7.63
2022-09-13T11:42:00.909Z,7.97
2022-09-13T11:45:21.884Z,8.33
2022-09-13T11:48:52.487Z,8.13
2022-09-13T11:52:04.325Z,7.37
2022-09-13T11:55:15.574Z,6.70
2022-09-13T11:58:25.676Z,7.60
2022-09-13T12:01:32.893Z,7.23
2022-09-13T12:04:54.933Z,5.97
2022-09-13T12:08:14.209Z,7.40
2022-09-13T12:11:20.188Z,5.13
2022-09-13T12:14:27.198Z,6.30
2022-09-13T12:17:36.592Z,5.80
2022-09-13T12:20:44.036Z,5.27
2022-09-13T12:23:54.233Z,5.57
2022-09-13T12:27:01.893Z,7.07
2022-09-13T12:30:08.402Z,6.17
2022-09-13T12:33:15.845Z,6.80
2022-09-13T12:36:47.561Z,8.20
2022-09-13T12:40:13.003Z,8.57
2022-09-13T12:43:45.074Z,8.27
2022-09-13T12:47:23.829Z,7.80
2022-09-13T12:50:47.018Z,8.50
2022-09-13T12:54:15.849Z,5.03
2022-09-13T12:57:30.135Z,6.77
2022-09-13T13:00:35.885Z,6.90
2022-09-13T13:03:50.168Z,7.40
2022-09-13T13:06:55.636Z,5.47
2022-09-13T13:09:59.578Z,6.17
2022-09-13T13:13:16.789Z,6.10
2022-09-13T13:16:29.131Z,6.37
2022-09-13T13:19:36.476Z,6.03
2022-09-13T13:22:54.091Z,6.23
2022-09-13T13:26:08.132Z,6.60
2022-09-13T13:29:19.078Z,6.73
2022-09-13T13:32:22.451Z,6.77
2022-09-13T13:35:33.199Z,6.43
2022-09-13T13:38:47.713Z,6.07
2022-09-13T13:41:54.693Z,5.73
2022-09-13T13:45:22.745Z,5.80
2022-09-13T13:48:38.214Z,6.40
2022-09-13T13:51:42.430Z,5.30
2022-09-13T13:55:04.333Z,4.57
2022-09-13T13:58:23.365Z,5.50
2022-09-13T14:01:29.349Z,5.33
2022-09-13T14:05:09.771Z,5.53
2022-09-13T14:08:33.310Z,5.30
2022-09-13T14:11:49.290Z,6.00
2022-09-13T14:15:15.491Z,5.50
2022-09-13T14:19:09.145Z,4.97
2022-09-13T14:22:15.536Z,5.50
2022-09-13T14:25:26.639Z,5.47
2022-09-13T14:28:30.104Z,5.87
2022-09-13T14:31:32.876Z,5.40
2022-09-13T14:34:38.639Z,5.73
2022-09-13T14:37:41.388Z,5.90
2022-09-13T14:40:48.806Z,5.70
2022-09-13T14:43:51.600Z,5.27
2022-09-13T14:47:00.887Z,5.13
2022-09-13T14:50:08.370Z,5.47
2022-09-13T14:53:16.129Z,5.30
2022-09-13T14:56:31.505Z,5.17
2022-09-13T14:59:37.799Z,4.83
2022-09-13T15:02:41.612Z,5.83
2022-09-13T15:05:53.012Z,5.23
2022-09-13T15:08:59.659Z,5.00
2022-09-13T15:12:03.777Z,5.27
2022-09-13T15:15:27.917Z,5.17
2022-09-13T15:18:36.412Z,5.47
2022-09-13T15:21:39.723Z,4.50
2022-09-13T15:24:47.175Z,5.03
2022-09-13T15:27:52.038Z,4.80
2022-09-13T15:30:56.628Z,4.90
2022-09-13T15:34:23.707Z,5.40
2022-09-13T15:37:32.477Z,4.37
2022-09-13T15:40:44.354Z,4.80
2022-09-13T15:43:51.481Z,5.00
2022-09-13T15:46:56.042Z,5.43
2022-09-13T15:49:59.481Z,5.23
2022-09-13T15:53:02.894Z,4.80
2022-09-13T15:56:06.813Z,5.23
2022-09-13T15:59:14.199Z,4.47
2022-09-13T16:02:21.050Z,4.73
2022-09-13T16:05:24.234Z,5.63
2022-09-13T16:08:26.947Z,5.00
2022-09-13T16:11:29.892Z,4.70
2022-09-13T16:14:35.396Z,5.30
2022-09-13T16:17:38.159Z,5.33
2022-09-13T16:20:41.012Z,5.20
2022-09-13T16:23:43.638Z,5.37
2022-09-13T16:26:46.381Z,5.30
2022-09-13T16:29:50.497Z,4.90
2022-09-13T16:32:53.261Z,5.33
2022-09-13T16:35:59.085Z,5.10
2022-09-13T16:39:05.247Z,5.10
2022-09-13T16:42:08.282Z,4.90
2022-09-13T16:45:12.935Z,4.80
2022-09-13T16:48:15.749Z,5.27
2022-09-13T16:51:18.450Z,5.10
2022-09-13T16:54:21.305Z,5.20
2022-09-13T16:57:24.174Z,5.50
2022-09-13T17:00:28.827Z,5.70
2022-09-13T17:03:31.848Z,5.83
2022-09-13T17:06:34.496Z,5.50
2022-09-13T17:09:37.623Z,5.80
2022-09-13T17:12:41.334Z,5.87
2022-09-13T17:15:45.467Z,5.70
2022-09-13T17:18:48.261Z,5.83
2022-09-13T17:21:52.138Z,5.67
2022-09-13T17:24:54.957Z,6.30
2022-09-13T17:27:57.609Z,6.80
2022-09-13T17:31:02.797Z,6.57
2022-09-13T17:34:05.889Z,6.77
2022-09-13T17:37:08.648Z,6.70
2022-09-13T17:40:11.496Z,5.87
2022-09-13T17:43:14.359Z,6.43
2022-09-13T17:46:21.684Z,4.60
2022-09-13T17:49:24.406Z,4.33
2022-09-13T17:52:28.229Z,4.93
2022-09-13T17:55:32.439Z,4.90
2022-09-13T17:58:35.686Z,4.77
2022-09-13T18:01:41.955Z,4.40
2022-09-13T18:04:44.665Z,4.10
2022-09-13T18:07:47.488Z,4.73
2022-09-13T18:11:10.692Z,5.10
2022-09-13T18:14:14.511Z,4.70
2022-09-13T18:17:18.716Z,4.00
2022-09-13T18:20:21.800Z,4.00
2022-09-13T18:23:25.738Z,4.33
2022-09-13T18:26:30.987Z,4.67
2022-09-13T18:29:33.670Z,5.20
2022-09-13T18:32:37.715Z,4.90
2022-09-13T18:35:40.429Z,4.63
2022-09-13T18:38:45.842Z,4.30
2022-09-13T18:41:49.115Z,3.97
2022-09-13T18:44:51.972Z,3.60
2022-09-13T18:47:57.141Z,3.97
2022-09-13T18:51:00.608Z,3.83
2022-09-13T18:54:04.966Z,3.33
2022-09-13T18:57:07.708Z,3.37
2022-09-13T19:00:12.089Z,3.77
2022-09-13T19:03:16.439Z,5.27
2022-09-13T19:06:22.120Z,4.73
2022-09-13T19:09:25.376Z,5.40
2022-09-13T19:12:28.220Z,5.13
2022-09-13T19:15:31.044Z,4.30
2022-09-13T19:18:36.542Z,4.63
2022-09-13T19:21:39.466Z,5.00
2022-09-13T19:24:42.239Z,4.40
2022-09-13T19:27:45.295Z,4.20
2022-09-13T19:30:50.693Z,4.80
2022-09-13T19:33:56.608Z,4.20
2022-09-13T19:36:59.399Z,4.77
2022-09-13T19:40:02.905Z,4.73
2022-09-13T19:43:06.952Z,4.00
2022-09-13T19:46:11.784Z,4.50
2022-09-13T19:49:17.915Z,4.80
2022-09-13T19:52:22.039Z,4.50
2022-09-13T19:55:25.073Z,4.73
2022-09-13T19:58:29.689Z,4.53
2022-09-13T20:01:34.893Z,5.03
2022-09-13T20:04:39.423Z,5.43
2022-09-13T20:07:44.626Z,5.50
2022-09-13T20:10:47.333Z,4.37
2022-09-13T20:13:50.066Z,4.50
2022-09-13T20:16:55.316Z,4.60
2022-09-13T20:19:59.364Z,4.43
2022-09-13T20:23:02.419Z,4.07
2022-09-13T20:26:13.512Z,4.80
2022-09-13T20:29:16.547Z,5.10
2022-09-13T20:32:19.854Z,4.60
2022-09-13T20:35:24.072Z,4.10
2022-09-13T20:38:27.519Z,4.37
2022-09-13T20:41:31.246Z,4.30
2022-09-13T20:44:35.493Z,4.30
2022-09-13T20:47:38.586Z,3.83
2022-09-13T20:50:42.970Z,3.87
2022-09-13T20:53:46.130Z,4.40
2022-09-13T20:56:49.636Z,3.90
2022-09-13T20:59:52.693Z,4.30
2022-09-13T21:02:56.449Z,3.80
2022-09-13T21:06:03.243Z,3.83
2022-09-13T21:09:06.202Z,3.97
2022-09-13T21:12:09.700Z,4.23
2022-09-13T21:15:12.368Z,3.77
2022-09-13T21:18:15.069Z,3.90
2022-09-13T21:21:21.891Z,3.80
2022-09-13T21:24:25.308Z,3.53
2022-09-13T21:27:28.106Z,4.00
2022-09-13T21:30:30.805Z,3.73
2022-09-13T21:33:34.105Z,3.50
2022-09-13T21:36:38.477Z,4.37
2022-09-13T21:39:41.846Z,4.13
2022-09-13T21:42:44.547Z,4.30
2022-09-13T21:45:47.763Z,3.97
2022-09-13T21:48:52.604Z,4.20
2022-09-13T21:51:57.179Z,4.77
2022-09-13T21:54:59.808Z,3.80
2022-09-13T21:58:04.422Z,3.97
2022-09-13T22:01:09.193Z,4.13
2022-09-13T22:04:16.516Z,4.03
2022-09-13T22:07:21.968Z,4.33
2022-09-13T22:10:24.657Z,4.37
2022-09-13T22:13:27.714Z,4.70
2022-09-13T22:16:32.895Z,4.30
2022-09-13T22:19:35.662Z,4.30
2022-09-13T22:22:40.213Z,3.97
2022-09-13T22:25:43.648Z,3.67
2022-09-13T22:28:47.434Z,3.80
2022-09-13T22:31:52.633Z,4.30
2022-09-13T22:34:56.157Z,4.87
2022-09-13T22:38:00.644Z,5.50
2022-09-13T22:41:05.619Z,5.30
2022-09-13T22:44:08.690Z,4.93
2022-09-13T22:47:11.743Z,6.03
2022-09-13T22:50:14.470Z,4.80
2022-09-13T22:53:18.472Z,6.70
2022-09-13T22:56:24.148Z,4.90
2022-09-13T22:59:26.949Z,4.90
2022-09-13T23:02:30.036Z,4.70
2022-09-13T23:05:32.657Z,4.90
2022-09-13T23:08:38.707Z,5.73
2022-09-13T23:11:41.802Z,5.37
2022-09-13T23:14:44.463Z,4.77
2022-09-13T23:17:47.322Z,4.90
2022-09-13T23:20:57.656Z,4.70
2022-09-13T23:24:02.875Z,5.03
2022-09-13T23:27:06.780Z,4.80
2022-09-13T23:30:10.539Z,4.33
2022-09-13T23:33:13.575Z,4.60
2022-09-13T23:36:17.859Z,4.00
2022-09-13T23:39:22.633Z,4.10
2022-09-13T23:42:25.648Z,4.20
2022-09-13T23:45:28.394Z,3.90
2022-09-13T23:48:31.866Z,4.20
2022-09-13T23:51:34.818Z,4.40
2022-09-13T23:54:39.284Z,4.30
2022-09-13T23:57:41.975Z,4.77
